sensor_id;sensor_type;location;lat;lon;timestamp;P1;durP1;ratioP1;P2;durP2;ratioP2
5646;SDS011;2845;48.626;9.362;2022-11-27T00:05:30;10.50;;;4.27;;
5646;SDS011;2845;48.626;9.362;2022-11-27T00:20:05;8.00;;;3.53;;
5646;SDS011;2845;48.626;9.362;2022-11-27T00:30:37;6.97;;;3.30;;
5646;SDS011;2845;48.626;9.362;2022-11-27T00:37:26;5.17;;;2.70;;
5646;SDS011;2845;48.626;9.362;2022-11-27T00:52:40;7.20;;;3.33;;
5646;SDS011;2845;48.626;9.362;2022-11-27T00:55:17;6.77;;;3.53;;
5646;SDS011;2845;48.626;9.362;2022-11-27T01:01:58;5.53;;;3.53;;
5646;SDS011;2845;48.626;9.362;2022-11-27T01:16:38;6.87;;;3.17;;
5646;SDS011;2845;48.626;9.362;2022-11-27T01:27:40;6.57;;;3.07;;
5646;SDS011;2845;48.626;9.362;2022-11-27T01:34:31;7.03;;;3.77;;
5646;SDS011;2845;48.626;9.362;2022-11-27T01:41:19;8.33;;;3.03;;
5646;SDS011;2845;48.626;9.362;2022-11-27T01:48:10;6.03;;;3.53;;
5646;SDS011;2845;48.626;9.362;2022-11-27T01:55:00;6.10;;;2.90;;
5646;SDS011;2845;48.626;9.362;2022-11-27T02:01:45;6.73;;;3.10;;
5646;SDS011;2845;48.626;9.362;2022-11-27T02:12:49;6.83;;;2.47;;
5646;SDS011;2845;48.626;9.362;2022-11-27T02:28:23;6.97;;;2.43;;
5646;SDS011;2845;48.626;9.362;2022-11-27T02:31:40;6.23;;;2.70;;
5646;SDS011;2845;48.626;9.362;2022-11-27T02:45:48;5.17;;;2.50;;
5646;SDS011;2845;48.626;9.362;2022-11-27T02:48:26;6.70;;;2.50;;
5646;SDS011;2845;48.626;9.362;2022-11-27T03:03:23;6.00;;;2.27;;
5646;SDS011;2845;48.626;9.362;2022-11-27T03:32:13;5.03;;;2.40;;
5646;SDS011;2845;48.626;9.362;2022-11-27T03:39:01;6.93;;;2.70;;
5646;SDS011;2845;48.626;9.362;2022-11-27T03:45:51;6.27;;;2.47;;
5646;SDS011;2845;48.626;9.362;2022-11-27T03:48:51;6.27;;;2.07;;
5646;SDS011;2845;48.626;9.362;2022-11-27T03:51:38;4.33;;;2.17;;
5646;SDS011;2845;48.626;9.362;2022-11-27T03:58:32;5.23;;;2.23;;
5646;SDS011;2845;48.626;9.362;2022-11-27T04:15:44;5.67;;;2.63;;
5646;SDS011;2845;48.626;9.362;2022-11-27T04:22:25;8.13;;;3.47;;
5646;SDS011;2845;48.626;9.362;2022-11-27T04:29:12;6.87;;;2.77;;
5646;SDS011;2845;48.626;9.362;2022-11-27T04:43:15;4.37;;;2.53;;
5646;SDS011;2845;48.626;9.362;2022-11-27T04:57:14;4.57;;;2.10;;
5646;SDS011;2845;48.626;9.362;2022-11-27T05:04:02;4.40;;;1.87;;
5646;SDS011;2845;48.626;9.362;2022-11-27T05:06:42;2.97;;;1.47;;
5646;SDS011;2845;48.626;9.362;2022-11-27T05:13:23;3.47;;;1.63;;
5646;SDS011;2845;48.626;9.362;2022-11-27T05:20:23;3.07;;;1.50;;
5646;SDS011;2845;48.626;9.362;2022-11-27T05:27:20;2.63;;;1.60;;
5646;SDS011;2845;48.626;9.362;2022-11-27T05:34:10;2.20;;;1.33;;
5646;SDS011;2845;48.626;9.362;2022-11-27T05:40:58;3.03;;;1.40;;
5646;SDS011;2845;48.626;9.362;2022-11-27T05:47:49;4.33;;;1.77;;
5646;SDS011;2845;48.626;9.362;2022-11-27T05:54:38;5.63;;;1.83;;
5646;SDS011;2845;48.626;9.362;2022-11-27T06:01:26;3.50;;;1.73;;
5646;SDS011;2845;48.626;9.362;2022-11-27T06:08:08;3.30;;;1.67;;
5646;SDS011;2845;48.626;9.362;2022-11-27T06:14:55;3.70;;;1.90;;
5646;SDS011;2845;48.626;9.362;2022-11-27T06:21:42;4.03;;;1.60;;
5646;SDS011;2845;48.626;9.362;2022-11-27T06:28:24;4.67;;;1.87;;
5646;SDS011;2845;48.626;9.362;2022-11-27T06:35:11;2.77;;;1.77;;
5646;SDS011;2845;48.626;9.362;2022-11-27T06:41:58;4.10;;;1.40;;
5646;SDS011;2845;48.626;9.362;2022-11-27T06:48:43;4.07;;;1.63;;
5646;SDS011;2845;48.626;9.362;2022-11-27T06:58:51;3.53;;;1.63;;
5646;SDS011;2845;48.626;9.362;2022-11-27T07:05:41;3.77;;;1.77;;
5646;SDS011;2845;48.626;9.362;2022-11-27T07:12:30;4.43;;;2.03;;
5646;SDS011;2845;48.626;9.362;2022-11-27T07:19:17;3.50;;;1.47;;
5646;SDS011;2845;48.626;9.362;2022-11-27T07:26:05;5.03;;;1.87;;
5646;SDS011;2845;48.626;9.362;2022-11-27T07:32:47;3.87;;;1.70;;
5646;SDS011;2845;48.626;9.362;2022-11-27T07:39:36;3.83;;;1.90;;
5646;SDS011;2845;48.626;9.362;2022-11-27T07:46:44;3.87;;;1.63;;
5646;SDS011;2845;48.626;9.362;2022-11-27T07:53:25;3.47;;;1.47;;
5646;SDS011;2845;48.626;9.362;2022-11-27T08:00:16;2.50;;;1.43;;
5646;SDS011;2845;48.626;9.362;2022-11-27T08:07:08;4.03;;;1.70;;
5646;SDS011;2845;48.626;9.362;2022-11-27T08:13:49;4.33;;;2.30;;
5646;SDS011;2845;48.626;9.362;2022-11-27T08:20:44;4.57;;;2.00;;
5646;SDS011;2845;48.626;9.362;2022-11-27T08:27:32;4.63;;;2.23;;
5646;SDS011;2845;48.626;9.362;2022-11-27T08:34:20;5.27;;;2.33;;
5646;SDS011;2845;48.626;9.362;2022-11-27T08:41:07;4.17;;;1.83;;
5646;SDS011;2845;48.626;9.362;2022-11-27T08:47:56;5.17;;;2.13;;
5646;SDS011;2845;48.626;9.362;2022-11-27T08:54:30;4.70;;;2.13;;
5646;SDS011;2845;48.626;9.362;2022-11-27T09:01:18;6.30;;;2.23;;
5646;SDS011;2845;48.626;9.362;2022-11-27T09:08:11;7.43;;;3.00;;
5646;SDS011;2845;48.626;9.362;2022-11-27T09:15:05;7.83;;;3.27;;
5646;SDS011;2845;48.626;9.362;2022-11-27T09:21:53;7.30;;;3.20;;
5646;SDS011;2845;48.626;9.362;2022-11-27T09:28:36;6.93;;;3.17;;
5646;SDS011;2845;48.626;9.362;2022-11-27T09:35:24;5.00;;;2.53;;
5646;SDS011;2845;48.626;9.362;2022-11-27T09:42:11;6.57;;;3.30;;
5646;SDS011;2845;48.626;9.362;2022-11-27T09:49:11;5.80;;;2.60;;
5646;SDS011;2845;48.626;9.362;2022-11-27T09:58:55;8.33;;;3.70;;
5646;SDS011;2845;48.626;9.362;2022-11-27T10:05:50;9.23;;;3.80;;
5646;SDS011;2845;48.626;9.362;2022-11-27T10:12:48;6.63;;;3.00;;
5646;SDS011;2845;48.626;9.362;2022-11-27T10:19:50;6.53;;;3.50;;
5646;SDS011;2845;48.626;9.362;2022-11-27T10:26:48;8.10;;;4.00;;
5646;SDS011;2845;48.626;9.362;2022-11-27T10:33:35;6.17;;;3.20;;
5646;SDS011;2845;48.626;9.362;2022-11-27T10:40:28;8.90;;;4.07;;
5646;SDS011;2845;48.626;9.362;2022-11-27T10:47:18;6.93;;;4.13;;
5646;SDS011;2845;48.626;9.362;2022-11-27T10:54:05;7.17;;;3.57;;
5646;SDS011;2845;48.626;9.362;2022-11-27T11:01:02;7.30;;;3.60;;
5646;SDS011;2845;48.626;9.362;2022-11-27T11:07:55;7.07;;;3.33;;
5646;SDS011;2845;48.626;9.362;2022-11-27T11:14:48;6.13;;;3.13;;
5646;SDS011;2845;48.626;9.362;2022-11-27T11:21:37;6.77;;;2.83;;
5646;SDS011;2845;48.626;9.362;2022-11-27T11:28:23;6.07;;;2.77;;
5646;SDS011;2845;48.626;9.362;2022-11-27T11:35:24;6.30;;;3.30;;
5646;SDS011;2845;48.626;9.362;2022-11-27T11:42:17;7.17;;;2.87;;
5646;SDS011;2845;48.626;9.362;2022-11-27T11:49:04;7.35;;;3.28;;
5646;SDS011;2845;48.626;9.362;2022-11-27T11:58:59;6.70;;;2.67;;
5646;SDS011;2845;48.626;9.362;2022-11-27T12:05:56;4.53;;;2.45;;
5646;SDS011;2845;48.626;9.362;2022-11-27T12:13:12;5.85;;;2.47;;
5646;SDS011;2845;48.626;9.362;2022-11-27T12:23:37;5.72;;;2.55;;
5646;SDS011;2845;48.626;9.362;2022-11-27T12:30:42;3.83;;;1.77;;
5646;SDS011;2845;48.626;9.362;2022-11-27T12:37:37;4.30;;;2.13;;
5646;SDS011;2845;48.626;9.362;2022-11-27T12:44:40;4.65;;;2.40;;
5646;SDS011;2845;48.626;9.362;2022-11-27T12:50:19;5.40;;;3.03;;
5646;SDS011;2845;48.626;9.362;2022-11-27T12:57:15;5.88;;;2.67;;
5646;SDS011;2845;48.626;9.362;2022-11-27T13:04:02;5.10;;;2.05;;
5646;SDS011;2845;48.626;9.362;2022-11-27T13:11:03;6.47;;;2.80;;
5646;SDS011;2845;48.626;9.362;2022-11-27T13:17:55;6.07;;;2.85;;
5646;SDS011;2845;48.626;9.362;2022-11-27T13:25:00;7.40;;;2.90;;
5646;SDS011;2845;48.626;9.362;2022-11-27T13:31:50;5.25;;;3.20;;
5646;SDS011;2845;48.626;9.362;2022-11-27T13:38:35;6.72;;;3.55;;
5646;SDS011;2845;48.626;9.362;2022-11-27T13:45:32;9.95;;;3.63;;
5646;SDS011;2845;48.626;9.362;2022-11-27T13:56:34;5.05;;;2.45;;
5646;SDS011;2845;48.626;9.362;2022-11-27T14:03:21;6.90;;;3.13;;
5646;SDS011;2845;48.626;9.362;2022-11-27T14:10:13;8.13;;;4.20;;
5646;SDS011;2845;48.626;9.362;2022-11-27T14:17:02;4.35;;;2.67;;
5646;SDS011;2845;48.626;9.362;2022-11-27T14:23:49;7.63;;;3.63;;
5646;SDS011;2845;48.626;9.362;2022-11-27T14:30:42;5.93;;;2.92;;
5646;SDS011;2845;48.626;9.362;2022-11-27T14:37:33;7.68;;;3.60;;
5646;SDS011;2845;48.626;9.362;2022-11-27T14:44:15;6.40;;;3.50;;
5646;SDS011;2845;48.626;9.362;2022-11-27T14:51:07;7.35;;;3.20;;
5646;SDS011;2845;48.626;9.362;2022-11-27T15:01:58;8.23;;;3.47;;
5646;SDS011;2845;48.626;9.362;2022-11-27T15:08:41;6.60;;;3.58;;
5646;SDS011;2845;48.626;9.362;2022-11-27T15:15:55;4.90;;;2.53;;
5646;SDS011;2845;48.626;9.362;2022-11-27T15:22:50;4.82;;;2.67;;
5646;SDS011;2845;48.626;9.362;2022-11-27T15:29:41;7.15;;;3.15;;
5646;SDS011;2845;48.626;9.362;2022-11-27T15:36:43;5.90;;;2.60;;
5646;SDS011;2845;48.626;9.362;2022-11-27T15:43:29;5.18;;;2.75;;
5646;SDS011;2845;48.626;9.362;2022-11-27T15:50:16;7.13;;;3.40;;
5646;SDS011;2845;48.626;9.362;2022-11-27T15:57:14;5.10;;;2.35;;
5646;SDS011;2845;48.626;9.362;2022-11-27T16:03:56;8.93;;;4.18;;
5646;SDS011;2845;48.626;9.362;2022-11-27T16:10:43;11.02;;;4.95;;
5646;SDS011;2845;48.626;9.362;2022-11-27T16:21:02;13.68;;;4.78;;
5646;SDS011;2845;48.626;9.362;2022-11-27T16:27:51;12.93;;;4.90;;
5646;SDS011;2845;48.626;9.362;2022-11-27T16:34:48;10.02;;;4.85;;
5646;SDS011;2845;48.626;9.362;2022-11-27T16:41:38;7.00;;;2.90;;
5646;SDS011;2845;48.626;9.362;2022-11-27T16:48:18;9.20;;;2.78;;
5646;SDS011;2845;48.626;9.362;2022-11-27T16:59:21;4.95;;;2.25;;
5646;SDS011;2845;48.626;9.362;2022-11-27T17:06:09;2.65;;;1.33;;
5646;SDS011;2845;48.626;9.362;2022-11-27T17:12:14;4.28;;;1.63;;
5646;SDS011;2845;48.626;9.362;2022-11-27T17:18:56;7.35;;;2.25;;
5646;SDS011;2845;48.626;9.362;2022-11-27T17:25:43;3.55;;;1.45;;
5646;SDS011;2845;48.626;9.362;2022-11-27T17:32:31;4.07;;;2.03;;
5646;SDS011;2845;48.626;9.362;2022-11-27T17:39:13;2.03;;;1.10;;
5646;SDS011;2845;48.626;9.362;2022-11-27T17:46:00;3.08;;;1.40;;
5646;SDS011;2845;48.626;9.362;2022-11-27T17:52:52;3.22;;;1.20;;
5646;SDS011;2845;48.626;9.362;2022-11-27T17:59:42;4.57;;;1.98;;
5646;SDS011;2845;48.626;9.362;2022-11-27T18:06:34;3.90;;;1.58;;
5646;SDS011;2845;48.626;9.362;2022-11-27T18:12:15;4.72;;;1.98;;
5646;SDS011;2845;48.626;9.362;2022-11-27T18:18:57;4.95;;;2.50;;
5646;SDS011;2845;48.626;9.362;2022-11-27T18:25:50;10.13;;;4.60;;
5646;SDS011;2845;48.626;9.362;2022-11-27T18:32:38;10.80;;;4.93;;
5646;SDS011;2845;48.626;9.362;2022-11-27T18:39:20;10.60;;;4.53;;
5646;SDS011;2845;48.626;9.362;2022-11-27T18:46:07;11.68;;;5.07;;
5646;SDS011;2845;48.626;9.362;2022-11-27T18:52:58;14.18;;;5.50;;
5646;SDS011;2845;48.626;9.362;2022-11-27T18:59:49;10.15;;;5.07;;
5646;SDS011;2845;48.626;9.362;2022-11-27T19:06:38;9.88;;;5.10;;
5646;SDS011;2845;48.626;9.362;2022-11-27T19:12:14;10.40;;;4.95;;
5646;SDS011;2845;48.626;9.362;2022-11-27T19:19:01;8.02;;;4.43;;
5646;SDS011;2845;48.626;9.362;2022-11-27T19:26:13;9.63;;;3.85;;
5646;SDS011;2845;48.626;9.362;2022-11-27T19:33:02;8.60;;;4.78;;
5646;SDS011;2845;48.626;9.362;2022-11-27T19:39:53;11.82;;;5.13;;
5646;SDS011;2845;48.626;9.362;2022-11-27T19:46:44;9.40;;;4.78;;
5646;SDS011;2845;48.626;9.362;2022-11-27T19:53:29;8.85;;;4.68;;
5646;SDS011;2845;48.626;9.362;2022-11-27T20:00:24;9.32;;;4.13;;
5646;SDS011;2845;48.626;9.362;2022-11-27T20:07:16;11.68;;;4.85;;
5646;SDS011;2845;48.626;9.362;2022-11-27T20:14:05;8.77;;;3.75;;
5646;SDS011;2845;48.626;9.362;2022-11-27T20:28:14;9.50;;;4.22;;
5646;SDS011;2845;48.626;9.362;2022-11-27T20:35:21;9.63;;;3.75;;
5646;SDS011;2845;48.626;9.362;2022-11-27T20:42:34;9.02;;;4.22;;
5646;SDS011;2845;48.626;9.362;2022-11-27T20:49:21;9.40;;;4.75;;
5646;SDS011;2845;48.626;9.362;2022-11-27T21:00:25;16.25;;;6.68;;
5646;SDS011;2845;48.626;9.362;2022-11-27T21:07:13;14.45;;;5.72;;
5646;SDS011;2845;48.626;9.362;2022-11-27T21:14:10;12.63;;;5.57;;
5646;SDS011;2845;48.626;9.362;2022-11-27T21:21:09;9.57;;;4.88;;
5646;SDS011;2845;48.626;9.362;2022-11-27T21:28:00;7.90;;;4.47;;
5646;SDS011;2845;48.626;9.362;2022-11-27T21:30:52;11.38;;;5.70;;
5646;SDS011;2845;48.626;9.362;2022-11-27T21:40:23;7.80;;;4.05;;
5646;SDS011;2845;48.626;9.362;2022-11-27T21:47:19;9.18;;;3.90;;
5646;SDS011;2845;48.626;9.362;2022-11-27T21:54:04;10.90;;;4.25;;
5646;SDS011;2845;48.626;9.362;2022-11-27T22:00:58;8.27;;;4.07;;
5646;SDS011;2845;48.626;9.362;2022-11-27T22:07:46;7.43;;;3.80;;
5646;SDS011;2845;48.626;9.362;2022-11-27T22:14:38;5.60;;;2.97;;
5646;SDS011;2845;48.626;9.362;2022-11-27T22:21:27;8.98;;;4.03;;
5646;SDS011;2845;48.626;9.362;2022-11-27T22:28:17;6.68;;;3.78;;
5646;SDS011;2845;48.626;9.362;2022-11-27T22:35:17;7.18;;;3.78;;
5646;SDS011;2845;48.626;9.362;2022-11-27T22:42:06;6.05;;;3.22;;
5646;SDS011;2845;48.626;9.362;2022-11-27T22:53:25;7.15;;;3.80;;
5646;SDS011;2845;48.626;9.362;2022-11-27T23:07:33;6.40;;;2.85;;
5646;SDS011;2845;48.626;9.362;2022-11-27T23:14:14;7.35;;;3.50;;
5646;SDS011;2845;48.626;9.362;2022-11-27T23:21:08;8.90;;;4.05;;
5646;SDS011;2845;48.626;9.362;2022-11-27T23:27:58;8.10;;;4.00;;
5646;SDS011;2845;48.626;9.362;2022-11-27T23:34:45;7.75;;;3.80;;
5646;SDS011;2845;48.626;9.362;2022-11-27T23:41:34;7.75;;;3.75;;
5646;SDS011;2845;48.626;9.362;2022-11-27T23:48:17;6.30;;;3.22;;
5646;SDS011;2845;48.626;9.362;2022-11-27T23:55:04;7.82;;;3.35;;
